createdAt,value
2022-09-15T00:02:22.175Z,1.98
2022-09-15T00:04:48.855Z,1.80
2022-09-15T00:07:16.265Z,1.95
2022-09-15T00:09:42.930Z,1.90
2022-09-15T00:12:09.534Z,1.70
2022-09-15T00:14:36.118Z,1.50
2022-09-15T00:17:02.916Z,1.85
2022-09-15T00:19:29.567Z,2.22
2022-09-15T00:21:56.214Z,1.58
2022-09-15T00:24:22.778Z,2.07
2022-09-15T00:26:49.360Z,1.90
2022-09-15T00:29:15.943Z,1.90
2022-09-15T00:31:42.585Z,1.80
2022-09-15T00:34:12.192Z,1.77
2022-09-15T00:36:38.954Z,1.83
2022-09-15T00:39:05.737Z,1.75
2022-09-15T00:41:32.393Z,1.90
2022-09-15T00:44:04.154Z,1.60
2022-09-15T00:46:36.934Z,1.92
2022-09-15T00:49:13.508Z,2.07
2022-09-15T00:51:46.957Z,2.17
2022-09-15T00:54:19.426Z,1.92
2022-09-15T00:56:48.941Z,1.80
2022-09-15T00:59:19.745Z,2.00
2022-09-15T01:01:47.069Z,1.30
2022-09-15T01:04:14.608Z,2.08
2022-09-15T01:06:45.268Z,1.80
2022-09-15T01:09:26.772Z,1.60
2022-09-15T01:11:53.653Z,1.80
2022-09-15T01:14:20.240Z,1.80
2022-09-15T01:17:11.122Z,2.00
2022-09-15T01:19:56.665Z,1.70
2022-09-15T01:22:48.556Z,1.98
2022-09-15T01:25:20.610Z,1.90
2022-09-15T01:27:53.500Z,1.70
2022-09-15T01:30:24.321Z,1.80
2022-09-15T01:33:05.702Z,2.85
2022-09-15T01:35:56.698Z,1.80
2022-09-15T01:38:38.645Z,1.73
2022-09-15T01:41:17.749Z,1.80
2022-09-15T01:44:06.009Z,1.63
2022-09-15T01:46:40.409Z,1.85
2022-09-15T01:49:09.530Z,1.77
2022-09-15T01:51:37.140Z,1.85
2022-09-15T01:54:05.891Z,1.47
2022-09-15T01:56:32.795Z,1.90
2022-09-15T01:58:59.687Z,1.88
2022-09-15T02:01:34.116Z,1.63
2022-09-15T02:04:30.484Z,1.70
2022-09-15T02:07:20.600Z,1.83
2022-09-15T02:10:03.901Z,1.80
2022-09-15T02:12:37.933Z,2.03
2022-09-15T02:15:08.746Z,1.95
2022-09-15T02:17:39.885Z,1.92
2022-09-15T02:20:23.838Z,1.80
2022-09-15T02:22:54.703Z,2.20
2022-09-15T02:25:47.201Z,2.03
2022-09-15T02:28:15.245Z,1.95
2022-09-15T02:30:44.932Z,1.85
2022-09-15T02:33:19.748Z,1.73
2022-09-15T02:35:46.827Z,1.83
2022-09-15T02:38:14.169Z,1.77
2022-09-15T02:40:42.826Z,1.85
2022-09-15T02:43:15.277Z,1.90
2022-09-15T02:45:42.414Z,2.30
2022-09-15T02:48:09.746Z,2.15
2022-09-15T02:50:37.178Z,2.05
2022-09-15T02:53:04.175Z,2.35
2022-09-15T02:55:30.942Z,2.10
2022-09-15T02:57:58.239Z,2.20
2022-09-15T03:00:25.753Z,2.08
2022-09-15T03:02:54.434Z,1.83
2022-09-15T03:05:26.929Z,1.80
2022-09-15T03:07:53.893Z,1.90
2022-09-15T03:10:21.295Z,2.67
2022-09-15T03:12:49.933Z,1.80
2022-09-15T03:15:18.935Z,1.77
2022-09-15T03:17:47.238Z,2.28
2022-09-15T03:20:20.366Z,1.60
2022-09-15T03:22:47.772Z,1.93
2022-09-15T03:25:14.425Z,1.55
2022-09-15T03:27:41.174Z,1.75
2022-09-15T03:30:08.677Z,1.75
2022-09-15T03:32:35.368Z,1.70
2022-09-15T03:35:02.219Z,1.90
2022-09-15T03:37:28.814Z,1.88
2022-09-15T03:39:56.048Z,1.70
2022-09-15T03:42:22.759Z,1.70
2022-09-15T03:44:49.429Z,1.75
2022-09-15T03:47:16.165Z,1.70
2022-09-15T03:49:42.885Z,2.35
2022-09-15T03:52:10.231Z,2.28
2022-09-15T03:54:36.851Z,1.55
2022-09-15T03:57:03.693Z,2.08
2022-09-15T03:59:30.307Z,1.70
2022-09-15T04:01:57.115Z,2.03
2022-09-15T04:04:24.057Z,1.85
2022-09-15T04:06:50.662Z,2.20
2022-09-15T04:09:17.272Z,1.77
2022-09-15T04:11:43.876Z,1.77
2022-09-15T04:14:10.475Z,1.60
2022-09-15T04:16:37.104Z,2.10
2022-09-15T04:19:03.869Z,1.60
2022-09-15T04:21:32.066Z,2.05
2022-09-15T04:23:58.719Z,1.77
2022-09-15T04:26:28.963Z,1.98
2022-09-15T04:28:55.768Z,1.70
2022-09-15T04:31:22.638Z,2.00
2022-09-15T04:33:52.581Z,1.92
2022-09-15T04:36:21.980Z,1.83
2022-09-15T04:38:49.311Z,1.70
2022-09-15T04:41:16.505Z,1.77
2022-09-15T04:43:46.115Z,2.42
2022-09-15T04:46:13.992Z,1.63
2022-09-15T04:48:41.154Z,1.60
2022-09-15T04:51:12.169Z,1.50
2022-09-15T04:53:39.121Z,1.70
2022-09-15T04:56:11.231Z,1.70
2022-09-15T04:59:12.654Z,1.67
2022-09-15T05:01:39.522Z,1.60
2022-09-15T05:04:06.156Z,1.90
2022-09-15T05:06:33.608Z,1.75
2022-09-15T05:09:00.260Z,1.90
2022-09-15T05:11:28.310Z,1.92
2022-09-15T05:13:55.095Z,1.73
2022-09-15T05:16:24.386Z,1.60
2022-09-15T05:18:52.894Z,1.83
2022-09-15T05:21:21.047Z,2.08
2022-09-15T05:23:48.462Z,1.77
2022-09-15T05:26:17.583Z,1.80
2022-09-15T05:28:44.282Z,1.70
2022-09-15T05:31:19.967Z,1.42
2022-09-15T05:33:47.800Z,1.50
2022-09-15T05:36:15.347Z,1.77
2022-09-15T05:38:42.053Z,1.53
2022-09-15T05:41:10.854Z,1.50
2022-09-15T05:43:38.389Z,1.55
2022-09-15T05:46:07.678Z,1.85
2022-09-15T05:48:34.823Z,2.20
2022-09-15T05:51:01.779Z,1.80
2022-09-15T05:53:28.390Z,1.70
2022-09-15T05:55:56.766Z,1.50
2022-09-15T05:58:23.649Z,1.70
2022-09-15T06:00:50.430Z,1.70
2022-09-15T06:03:17.687Z,1.87
2022-09-15T06:05:44.401Z,1.90
2022-09-15T06:08:11.243Z,1.73
2022-09-15T06:10:37.834Z,1.83
2022-09-15T06:13:04.535Z,2.03
2022-09-15T06:15:31.906Z,2.30
2022-09-15T06:17:58.747Z,2.00
2022-09-15T06:20:25.610Z,1.95
2022-09-15T06:22:53.361Z,1.80
2022-09-15T06:25:19.948Z,2.05
2022-09-15T06:27:49.473Z,2.07
2022-09-15T06:30:16.259Z,2.10
2022-09-15T06:32:47.516Z,2.78
2022-09-15T06:35:15.306Z,2.20
2022-09-15T06:37:42.077Z,2.22
2022-09-15T06:40:09.200Z,1.90
2022-09-15T06:42:35.838Z,2.13
2022-09-15T06:45:03.033Z,2.22
2022-09-15T06:47:33.948Z,2.55
2022-09-15T06:50:01.133Z,2.05
2022-09-15T06:52:27.842Z,1.97
2022-09-15T06:54:54.639Z,2.17
2022-09-15T06:57:21.259Z,2.15
2022-09-15T06:59:47.888Z,2.15
2022-09-15T07:02:14.596Z,1.90
2022-09-15T07:04:41.348Z,2.10
2022-09-15T07:07:08.168Z,1.90
2022-09-15T07:09:34.818Z,2.40
2022-09-15T07:12:01.656Z,1.95
2022-09-15T07:14:28.250Z,2.40
2022-09-15T07:16:54.837Z,2.47
2022-09-15T07:19:21.704Z,2.20
2022-09-15T07:21:48.357Z,1.88
2022-09-15T07:24:15.162Z,2.30
2022-09-15T07:26:42.092Z,2.33
2022-09-15T07:29:09.906Z,2.10
2022-09-15T07:31:38.525Z,1.73
2022-09-15T07:34:06.019Z,1.92
2022-09-15T07:36:32.763Z,1.80
2022-09-15T07:38:59.402Z,1.90
2022-09-15T07:41:30.091Z,2.07
2022-09-15T07:43:58.264Z,1.98
2022-09-15T07:46:26.046Z,1.60
2022-09-15T07:48:57.471Z,1.80
2022-09-15T07:51:25.432Z,1.40
2022-09-15T07:53:53.144Z,1.90
2022-09-15T07:56:20.651Z,1.23
2022-09-15T07:58:47.928Z,1.48
2022-09-15T08:01:15.527Z,1.50
2022-09-15T08:03:48.874Z,1.48
2022-09-15T08:06:17.820Z,1.60
2022-09-15T08:08:44.418Z,1.48
2022-09-15T08:11:18.889Z,1.30
2022-09-15T08:13:49.747Z,1.45
2022-09-15T08:16:19.428Z,1.30
2022-09-15T08:18:46.418Z,1.53
2022-09-15T08:21:20.356Z,1.25
2022-09-15T08:23:53.887Z,1.30
2022-09-15T08:26:20.601Z,1.42
2022-09-15T08:28:47.242Z,1.70
2022-09-15T08:31:14.727Z,1.23
2022-09-15T08:33:45.573Z,1.60
2022-09-15T08:36:13.292Z,1.20
2022-09-15T08:38:40.899Z,1.40
2022-09-15T08:41:40.914Z,1.50
2022-09-15T08:44:22.078Z,1.40
2022-09-15T08:46:51.728Z,1.20
2022-09-15T08:50:04.298Z,1.10
2022-09-15T08:52:41.879Z,1.40
2022-09-15T08:55:27.175Z,1.58
2022-09-15T08:57:54.091Z,1.17
2022-09-15T09:00:20.767Z,1.30
2022-09-15T09:03:00.223Z,1.27
2022-09-15T09:05:53.232Z,1.73
2022-09-15T09:08:40.982Z,1.98
2022-09-15T09:11:19.266Z,1.20
2022-09-15T09:13:50.758Z,1.25
2022-09-15T09:16:30.676Z,1.30
2022-09-15T09:19:08.366Z,1.30
2022-09-15T09:21:38.080Z,1.42
2022-09-15T09:24:08.605Z,1.40
2022-09-15T09:26:36.319Z,1.30
2022-09-15T09:29:08.384Z,1.10
2022-09-15T09:31:35.529Z,1.02
2022-09-15T09:34:13.991Z,1.00
2022-09-15T09:36:40.594Z,1.33
2022-09-15T09:39:12.477Z,1.27
2022-09-15T09:41:40.706Z,0.80
2022-09-15T09:44:11.772Z,1.40
2022-09-15T09:46:38.925Z,1.00
2022-09-15T09:49:17.039Z,0.83
2022-09-15T09:51:59.836Z,1.20
2022-09-15T09:54:28.670Z,1.00
2022-09-15T09:56:57.291Z,1.10
2022-09-15T09:59:35.133Z,1.38
2022-09-15T10:02:11.788Z,0.80
2022-09-15T10:04:39.912Z,0.85
2022-09-15T10:07:07.416Z,1.00
2022-09-15T10:09:34.170Z,1.10
2022-09-15T10:12:04.410Z,0.98
2022-09-15T10:14:41.480Z,0.93
2022-09-15T10:17:36.369Z,1.00
2022-09-15T10:20:05.965Z,1.00
2022-09-15T10:22:39.839Z,0.88
2022-09-15T10:25:21.305Z,0.90
2022-09-15T10:28:09.619Z,1.17
2022-09-15T10:30:36.975Z,0.90
2022-09-15T10:33:29.521Z,0.98
2022-09-15T10:36:03.413Z,1.10
2022-09-15T10:38:40.900Z,1.10
2022-09-15T10:41:18.501Z,1.00
2022-09-15T10:44:02.587Z,0.90
2022-09-15T10:47:02.966Z,1.00
2022-09-15T10:49:47.924Z,1.10
2022-09-15T10:52:32.827Z,1.23
2022-09-15T10:55:08.523Z,1.00
2022-09-15T10:57:53.709Z,1.15
2022-09-15T11:00:25.903Z,1.10
2022-09-15T11:03:13.976Z,1.20
2022-09-15T11:05:49.206Z,0.90
2022-09-15T11:08:34.495Z,1.10
2022-09-15T11:11:45.896Z,1.00
2022-09-15T11:15:00.526Z,1.00
2022-09-15T11:17:41.690Z,1.10
2022-09-15T11:20:26.790Z,0.90
2022-09-15T11:23:01.048Z,1.47
2022-09-15T11:25:30.482Z,1.13
2022-09-15T11:28:19.353Z,0.80
2022-09-15T11:30:51.978Z,1.00
2022-09-15T11:33:23.012Z,1.08
2022-09-15T11:35:59.389Z,1.10
2022-09-15T11:38:25.961Z,1.00
2022-09-15T11:41:02.949Z,0.70
2022-09-15T11:43:37.190Z,1.00
2022-09-15T11:46:10.156Z,0.82
2022-09-15T11:48:44.009Z,1.00
2022-09-15T11:51:11.779Z,0.70
2022-09-15T11:53:52.950Z,0.70
2022-09-15T11:56:24.822Z,0.90
2022-09-15T11:59:05.496Z,1.13
2022-09-15T12:01:44.439Z,0.80
2022-09-15T12:04:18.293Z,0.80
2022-09-15T12:07:11.108Z,0.73
2022-09-15T12:09:40.532Z,1.40
2022-09-15T12:12:11.617Z,0.65
2022-09-15T12:14:49.643Z,0.53
2022-09-15T12:17:22.522Z,0.93
2022-09-15T12:19:55.666Z,0.80
2022-09-15T12:22:32.180Z,0.75
2022-09-15T12:25:22.927Z,0.50
2022-09-15T12:28:23.924Z,0.67
2022-09-15T12:31:45.771Z,0.70
2022-09-15T12:34:35.497Z,0.57
2022-09-15T12:37:12.677Z,0.63
2022-09-15T12:39:43.641Z,0.77
2022-09-15T12:42:31.400Z,0.87
2022-09-15T12:45:21.148Z,0.60
2022-09-15T12:48:06.640Z,0.60
2022-09-15T12:50:37.775Z,0.60
2022-09-15T12:53:14.893Z,0.80
2022-09-15T12:55:55.737Z,0.73
2022-09-15T12:58:46.353Z,1.00
2022-09-15T13:01:19.411Z,0.70
2022-09-15T13:04:06.154Z,0.50
2022-09-15T13:06:38.458Z,0.77
2022-09-15T13:09:05.919Z,0.80
2022-09-15T13:11:38.737Z,0.80
2022-09-15T13:14:08.236Z,0.88
2022-09-15T13:16:41.136Z,0.68
2022-09-15T13:19:13.464Z,0.70
2022-09-15T13:21:43.167Z,0.60
2022-09-15T13:24:17.838Z,0.63
2022-09-15T13:26:49.431Z,0.70
2022-09-15T13:29:16.868Z,0.90
2022-09-15T13:31:55.602Z,0.80
2022-09-15T13:38:22.048Z,1.08
2022-09-15T13:41:31.126Z,0.80
2022-09-15T13:44:23.580Z,0.80
2022-09-15T13:47:00.026Z,0.90
2022-09-15T13:49:38.988Z,1.20
2022-09-15T13:52:14.277Z,1.17
2022-09-15T13:55:14.626Z,0.70
2022-09-15T14:00:54.409Z,0.93
2022-09-15T14:03:42.987Z,1.20
2022-09-15T14:06:23.481Z,0.80
2022-09-15T14:08:56.651Z,0.70
2022-09-15T14:11:31.361Z,0.77
2022-09-15T14:14:00.514Z,1.05
2022-09-15T14:16:27.895Z,0.70
2022-09-15T14:18:57.590Z,1.00
2022-09-15T14:21:32.577Z,0.80
2022-09-15T14:24:05.576Z,0.73
2022-09-15T14:26:34.488Z,0.80
2022-09-15T14:29:03.664Z,0.70
2022-09-15T14:31:33.467Z,0.70
2022-09-15T14:34:01.389Z,0.75
2022-09-15T14:36:31.867Z,0.90
2022-09-15T14:39:08.957Z,0.70
2022-09-15T14:41:36.705Z,0.90
2022-09-15T14:47:13.224Z,0.90
2022-09-15T14:49:39.829Z,1.00
2022-09-15T14:52:36.437Z,0.80
2022-09-15T14:55:08.089Z,1.00
2022-09-15T14:57:36.820Z,0.70
2022-09-15T15:00:07.832Z,0.88
2022-09-15T15:03:01.725Z,0.98
2022-09-15T15:05:34.056Z,0.80
2022-09-15T15:08:01.803Z,0.80
2022-09-15T15:10:35.467Z,0.90
2022-09-15T15:13:06.755Z,0.80
2022-09-15T15:15:34.314Z,1.10
2022-09-15T15:18:01.055Z,1.02
2022-09-15T15:20:30.416Z,1.00
2022-09-15T15:23:19.965Z,0.98
2022-09-15T15:25:49.288Z,1.15
2022-09-15T15:28:39.475Z,0.82
2022-09-15T15:31:17.867Z,0.90
2022-09-15T15:33:59.670Z,1.13
2022-09-15T15:36:28.736Z,1.00
2022-09-15T15:39:00.486Z,1.00
2022-09-15T15:41:35.458Z,0.73
2022-09-15T15:44:09.241Z,0.85
2022-09-15T15:46:54.062Z,0.90
2022-09-15T15:49:23.791Z,0.70
2022-09-15T15:51:50.353Z,0.90
2022-09-15T15:54:17.139Z,0.70
2022-09-15T15:56:43.937Z,0.60
2022-09-15T15:59:14.228Z,0.93
2022-09-15T16:01:41.015Z,0.70
2022-09-15T16:04:07.967Z,0.60
2022-09-15T16:06:35.174Z,0.73
2022-09-15T16:09:03.761Z,0.60
2022-09-15T16:11:30.397Z,0.80
2022-09-15T16:13:57.021Z,0.50
2022-09-15T16:16:25.887Z,0.82
2022-09-15T16:18:53.006Z,0.77
2022-09-15T16:21:26.529Z,0.60
2022-09-15T16:23:53.151Z,0.77
2022-09-15T16:26:23.299Z,0.90
2022-09-15T16:28:50.194Z,0.60
2022-09-15T16:31:16.987Z,0.80
2022-09-15T16:33:43.990Z,0.82
2022-09-15T16:36:15.471Z,0.60
2022-09-15T16:38:42.768Z,0.80
2022-09-15T16:41:20.170Z,0.50
2022-09-15T16:43:47.182Z,0.50
2022-09-15T16:46:14.490Z,0.63
2022-09-15T16:48:42.795Z,1.07
2022-09-15T16:51:26.657Z,0.70
2022-09-15T16:53:54.087Z,0.68
2022-09-15T16:56:20.684Z,0.63
2022-09-15T16:58:47.444Z,0.50
2022-09-15T17:01:18.223Z,0.60
2022-09-15T17:03:45.302Z,0.80
2022-09-15T17:06:17.757Z,0.50
2022-09-15T17:08:45.003Z,0.63
2022-09-15T17:11:16.431Z,0.73
2022-09-15T17:13:43.621Z,0.70
2022-09-15T17:16:11.439Z,0.50
2022-09-15T17:18:38.193Z,0.45
2022-09-15T17:21:04.943Z,0.50
2022-09-15T17:23:38.072Z,0.80
2022-09-15T17:26:13.814Z,0.50
2022-09-15T17:28:41.118Z,0.60
2022-09-15T17:31:17.536Z,0.60
2022-09-15T17:33:44.642Z,0.50
2022-09-15T17:36:11.749Z,0.60
2022-09-15T17:38:40.965Z,0.50
2022-09-15T17:41:18.789Z,0.50
2022-09-15T17:43:45.552Z,0.60
2022-09-15T17:46:12.329Z,0.70
2022-09-15T17:48:39.282Z,0.63
2022-09-15T17:51:09.957Z,0.60
2022-09-15T17:53:36.561Z,0.70
2022-09-15T17:56:03.219Z,0.80
2022-09-15T17:58:31.482Z,0.40
2022-09-15T18:00:58.508Z,0.85
2022-09-15T18:03:29.528Z,0.53
2022-09-15T18:05:58.586Z,0.45
2022-09-15T18:08:25.737Z,0.75
2022-09-15T18:10:52.544Z,0.80
2022-09-15T18:13:24.502Z,0.45
2022-09-15T18:15:51.407Z,0.60
2022-09-15T18:18:20.351Z,0.50
2022-09-15T18:20:47.482Z,0.80
2022-09-15T18:23:17.005Z,0.70
2022-09-15T18:25:44.361Z,0.60
2022-09-15T18:28:11.119Z,0.80
2022-09-15T18:30:42.353Z,0.70
2022-09-15T18:33:25.519Z,0.70
2022-09-15T18:35:56.145Z,0.70
2022-09-15T18:38:23.324Z,0.55
2022-09-15T18:40:55.404Z,0.50
2022-09-15T18:43:22.894Z,0.60
2022-09-15T18:45:50.330Z,0.50
2022-09-15T18:48:17.080Z,0.63
2022-09-15T18:50:44.601Z,0.60
2022-09-15T18:53:11.926Z,0.70
2022-09-15T18:55:40.902Z,0.52
2022-09-15T18:58:07.581Z,0.50
2022-09-15T19:00:34.167Z,0.52
2022-09-15T19:03:02.449Z,0.65
2022-09-15T19:05:30.051Z,0.70
2022-09-15T19:07:57.301Z,0.55
2022-09-15T19:10:24.795Z,0.60
2022-09-15T19:12:51.521Z,0.40
2022-09-15T19:15:18.332Z,0.50
2022-09-15T19:17:44.956Z,0.90
2022-09-15T19:20:14.251Z,0.60
2022-09-15T19:22:41.739Z,0.40
2022-09-15T19:25:08.916Z,0.80
2022-09-15T19:27:35.745Z,0.60
2022-09-15T19:30:02.338Z,0.70
2022-09-15T19:32:28.926Z,0.52
2022-09-15T19:34:55.532Z,0.80
2022-09-15T19:37:22.845Z,0.50
2022-09-15T19:39:50.210Z,0.73
2022-09-15T19:42:17.026Z,0.70
2022-09-15T19:44:43.997Z,1.00
2022-09-15T19:47:10.914Z,0.60
2022-09-15T19:49:37.880Z,0.70
2022-09-15T19:52:06.368Z,0.65
2022-09-15T19:54:34.538Z,0.73
2022-09-15T19:57:01.792Z,0.90
2022-09-15T19:59:31.298Z,0.68
2022-09-15T20:01:58.528Z,0.45
2022-09-15T20:04:25.224Z,0.80
2022-09-15T20:06:51.955Z,0.63
2022-09-15T20:09:18.807Z,0.70
2022-09-15T20:11:45.636Z,0.60
2022-09-15T20:14:12.290Z,0.85
2022-09-15T20:16:38.978Z,1.08
2022-09-15T20:19:06.167Z,0.77
2022-09-15T20:21:51.376Z,0.70
2022-09-15T20:24:19.262Z,0.55
2022-09-15T20:26:46.063Z,0.73
2022-09-15T20:29:13.195Z,1.02
2022-09-15T20:31:40.190Z,0.40
2022-09-15T20:34:07.259Z,0.50
2022-09-15T20:36:36.265Z,0.60
2022-09-15T20:39:05.230Z,0.60
2022-09-15T20:41:32.072Z,0.60
2022-09-15T20:43:59.350Z,0.70
2022-09-15T20:46:26.579Z,0.60
2022-09-15T20:48:53.444Z,0.70
2022-09-15T20:51:25.710Z,0.70
2022-09-15T20:53:54.524Z,0.60
2022-09-15T20:56:24.981Z,0.70
2022-09-15T20:58:52.999Z,0.63
2022-09-15T21:01:22.587Z,0.70
2022-09-15T21:03:49.492Z,0.60
2022-09-15T21:06:29.620Z,0.60
2022-09-15T21:08:57.756Z,0.70
2022-09-15T21:11:26.326Z,0.70
2022-09-15T21:13:53.542Z,0.60
2022-09-15T21:16:23.111Z,0.60
2022-09-15T21:18:50.334Z,0.80
2022-09-15T21:21:28.355Z,0.60
2022-09-15T21:23:56.874Z,0.60
2022-09-15T21:26:25.786Z,0.70
2022-09-15T21:28:53.609Z,0.80
2022-09-15T21:31:28.346Z,0.60
2022-09-15T21:33:55.685Z,0.60
2022-09-15T21:36:27.576Z,0.52
2022-09-15T21:38:56.241Z,0.93
2022-09-15T21:41:26.079Z,0.77
2022-09-15T21:43:54.962Z,0.70
2022-09-15T21:46:24.063Z,0.67
2022-09-15T21:48:51.794Z,0.60
2022-09-15T21:51:24.196Z,0.60
2022-09-15T21:53:52.524Z,0.52
2022-09-15T21:56:19.185Z,0.60
2022-09-15T21:58:45.860Z,0.53
2022-09-15T22:01:32.755Z,0.40
2022-09-15T22:04:04.985Z,0.60
2022-09-15T22:06:33.747Z,0.80
2022-09-15T22:09:02.020Z,0.57
2022-09-15T22:11:29.049Z,0.80
2022-09-15T22:13:55.787Z,0.60
2022-09-15T22:16:24.191Z,0.60
2022-09-15T22:18:51.587Z,0.70
2022-09-15T22:21:20.671Z,0.50
2022-09-15T22:23:48.637Z,0.60
2022-09-15T22:26:23.981Z,0.80
2022-09-15T22:28:50.571Z,0.80
2022-09-15T22:31:19.156Z,0.65
2022-09-15T22:33:46.028Z,0.60
2022-09-15T22:36:14.578Z,0.60
2022-09-15T22:38:41.201Z,0.50
2022-09-15T22:41:10.104Z,0.50
2022-09-15T22:43:37.040Z,0.57
2022-09-15T22:46:04.234Z,0.77
2022-09-15T22:48:31.143Z,0.60
2022-09-15T22:50:58.140Z,0.43
2022-09-15T22:53:25.423Z,0.60
2022-09-15T22:55:53.284Z,0.80
2022-09-15T22:58:20.043Z,0.60
2022-09-15T23:00:46.807Z,0.70
2022-09-15T23:03:13.496Z,0.60
2022-09-15T23:05:40.149Z,0.60
2022-09-15T23:08:06.933Z,0.60
2022-09-15T23:10:33.520Z,0.70
2022-09-15T23:13:00.536Z,0.70
2022-09-15T23:15:28.034Z,0.70
2022-09-15T23:17:54.679Z,0.55
2022-09-15T23:20:21.630Z,0.60
2022-09-15T23:22:48.281Z,0.60
2022-09-15T23:25:14.968Z,1.10
2022-09-15T23:27:41.563Z,0.63
2022-09-15T23:30:08.983Z,0.65
2022-09-15T23:32:35.560Z,0.70
2022-09-15T23:35:02.175Z,0.60
2022-09-15T23:37:28.804Z,0.70
2022-09-15T23:39:55.527Z,0.55
2022-09-15T23:42:22.185Z,0.60
2022-09-15T23:44:48.793Z,0.50
2022-09-15T23:47:15.368Z,0.70
2022-09-15T23:49:42.025Z,1.00
2022-09-15T23:52:08.626Z,0.82
2022-09-15T23:54:35.319Z,0.60
2022-09-15T23:57:01.914Z,0.85
2022-09-15T23:59:28.493Z,0.80
